Time;durP1;ratioP1;P1;durP2;ratioP2;P2;SDS_P1;SDS_P2;PMS_P1;PMS_P2;Temp;Humidity;BMP_temperature;BMP_pressure;BME280_temperature;BME280_humidity;BME280_pressure;Samples;Min_cycle;Max_cycle;Signal;HPM_P1;HPM_P2
2021/01/10 00:02:20;;;;;;;28.70;14.93;;;2.80;92.70;;;;;;6246197;23;20004;-87
2021/01/10 00:04:45;;;;;;;28.40;15.40;;;2.80;92.90;;;;;;6246059;23;20435;-88
2021/01/10 00:07:11;;;;;;;33.37;16.03;;;2.80;92.80;;;;;;6246209;22;20092;-88
2021/01/10 00:09:37;;;;;;;28.27;14.83;;;2.80;92.80;;;;;;6244717;22;20062;-86
2021/01/10 00:12:02;;;;;;;29.37;15.43;;;2.80;92.90;;;;;;6219035;23;20004;-88
2021/01/10 00:14:28;;;;;;;25.97;15.20;;;2.80;92.60;;;;;;6246188;23;19997;-88
2021/01/10 00:16:54;;;;;;;27.77;14.00;;;2.80;92.60;;;;;;6244823;22;20054;-87
2021/01/10 00:19:19;;;;;;;24.83;14.43;;;2.80;92.70;;;;;;6243910;23;20087;-87
2021/01/10 00:21:45;;;;;;;25.73;14.20;;;2.80;92.80;;;;;;6219031;23;20003;-87
2021/01/10 00:24:10;;;;;;;25.97;14.23;;;2.70;92.70;;;;;;6219074;23;20063;-87
2021/01/10 00:26:37;;;;;;;28.07;15.23;;;2.70;92.60;;;;;;6218926;22;20012;-87
2021/01/10 00:29:07;;;;;;;29.03;15.27;;;2.60;92.70;;;;;;6245405;23;20012;-87
2021/01/10 00:31:33;;;;;;;27.67;14.53;;;2.70;92.60;;;;;;6243890;22;20012;-87
2021/01/10 00:33:59;;;;;;;28.03;14.47;;;2.70;92.60;;;;;;6219007;23;20079;-87
2021/01/10 00:36:51;;;;;;;27.00;15.37;;;2.60;92.50;;;;;;6244301;22;20466;-87
2021/01/10 00:39:17;;;;;;;29.87;14.73;;;2.60;92.60;;;;;;6215310;23;20004;-87
2021/01/10 00:41:42;;;;;;;26.07;15.17;;;2.60;92.70;;;;;;6219027;23;20445;-87
2021/01/10 00:44:08;;;;;;;27.73;14.87;;;2.60;92.70;;;;;;6219071;23;20462;-87
2021/01/10 00:46:33;;;;;;;26.23;13.63;;;2.60;92.70;;;;;;6245838;22;20004;-87
2021/01/10 00:49:00;;;;;;;25.33;13.67;;;2.60;92.70;;;;;;6243403;23;20004;-87
2021/01/10 00:51:25;;;;;;;25.67;14.77;;;2.70;92.80;;;;;;6218768;23;20011;-87
2021/01/10 00:53:51;;;;;;;26.57;14.73;;;2.70;92.70;;;;;;6245766;23;20001;-87
2021/01/10 00:56:17;;;;;;;27.33;13.93;;;2.70;92.60;;;;;;6218882;23;20050;-87
2021/01/10 00:58:43;;;;;;;25.00;14.67;;;2.70;92.70;;;;;;6218823;23;20036;-88
2021/01/10 01:01:10;;;;;;;27.03;14.23;;;2.70;92.60;;;;;;6217871;23;20007;-87
2021/01/10 01:03:35;;;;;;;23.83;13.43;;;2.70;92.50;;;;;;6218935;23;20058;-88
2021/01/10 01:06:01;;;;;;;26.67;14.43;;;2.70;92.50;;;;;;6244042;22;20008;-87
2021/01/10 01:08:26;;;;;;;30.67;14.80;;;2.70;92.60;;;;;;6218899;23;20039;-87
2021/01/10 01:10:52;;;;;;;27.87;15.23;;;2.70;92.90;;;;;;6218315;23;20004;-87
2021/01/10 01:13:19;;;;;;;28.67;14.57;;;2.70;92.60;;;;;;6245396;23;20007;-87
2021/01/10 01:15:50;;;;;;;27.07;14.20;;;2.80;92.60;;;;;;6218908;23;20004;-88
2021/01/10 01:18:18;;;;;;;27.73;14.17;;;2.70;92.60;;;;;;6218652;23;20003;-87
2021/01/10 01:20:44;;;;;;;27.43;14.80;;;2.70;92.70;;;;;;6218293;23;20000;-88
2021/01/10 01:23:09;;;;;;;26.10;14.53;;;2.70;92.60;;;;;;6218952;23;20004;-87
2021/01/10 01:25:35;;;;;;;25.57;13.83;;;2.60;92.70;;;;;;6218717;23;20274;-88
2021/01/10 01:28:00;;;;;;;26.23;14.37;;;2.60;92.70;;;;;;6218626;23;20019;-87
2021/01/10 01:30:26;;;;;;;23.83;13.97;;;2.60;92.90;;;;;;6243488;23;20489;-87
2021/01/10 01:32:53;;;;;;;24.60;14.17;;;2.70;93.10;;;;;;6218471;23;20004;-87
2021/01/10 01:35:19;;;;;;;27.53;15.13;;;2.60;92.90;;;;;;6218625;23;20486;-88
2021/01/10 01:37:45;;;;;;;24.53;14.60;;;2.70;92.90;;;;;;6218261;23;20039;-87
2021/01/10 01:40:11;;;;;;;27.43;13.97;;;2.70;92.70;;;;;;6217974;23;20308;-87
2021/01/10 01:42:37;;;;;;;28.50;14.57;;;2.70;92.80;;;;;;6218413;23;20014;-87
2021/01/10 01:45:07;;;;;;;27.20;14.17;;;2.70;92.90;;;;;;6245788;23;20024;-87
2021/01/10 01:47:35;;;;;;;25.63;13.53;;;2.70;92.80;;;;;;6218609;23;20007;-87
2021/01/10 01:50:03;;;;;;;26.97;14.23;;;2.60;92.70;;;;;;6243297;23;20004;-87
2021/01/10 01:52:29;;;;;;;24.60;14.00;;;2.70;92.80;;;;;;6245256;23;20004;-87
2021/01/10 01:54:55;;;;;;;31.90;14.70;;;2.70;93.00;;;;;;6244259;22;20419;-88
2021/01/10 01:57:21;;;;;;;26.20;14.20;;;2.70;92.80;;;;;;6244556;23;20343;-88
2021/01/10 01:59:47;;;;;;;24.87;14.33;;;2.70;92.80;;;;;;6245791;23;20003;-88
2021/01/10 02:02:12;;;;;;;29.07;14.93;;;2.70;92.80;;;;;;6220884;23;20008;-87
2021/01/10 02:04:54;;;;;;;29.73;15.17;;;2.70;93.00;;;;;;6220391;23;20004;-87
2021/01/10 02:07:27;;;;;;;27.20;14.20;;;2.70;92.80;;;;;;6219462;23;20342;-87
2021/01/10 02:10:22;;;;;;;26.90;14.80;;;2.70;92.90;;;;;;6246786;23;20003;-87
2021/01/10 02:12:54;;;;;;;28.97;16.17;;;2.70;92.90;;;;;;6245838;23;20004;-87
2021/01/10 02:15:22;;;;;;;29.20;14.57;;;2.80;92.70;;;;;;6219887;23;19996;-87
2021/01/10 02:17:51;;;;;;;27.33;14.60;;;2.70;92.90;;;;;;6246011;22;20000;-88
2021/01/10 02:20:34;;;;;;;31.90;15.73;;;2.70;92.90;;;;;;6244850;23;20439;-86
2021/01/10 02:23:04;;;;;;;28.40;15.13;;;2.60;92.90;;;;;;6218076;23;20035;-87
2021/01/10 02:25:32;;;;;;;28.20;14.83;;;2.70;92.90;;;;;;6243437;23;20004;-87
2021/01/10 02:27:58;;;;;;;28.20;14.57;;;2.70;92.70;;;;;;6244578;22;20450;-87
2021/01/10 02:30:25;;;;;;;29.87;15.87;;;2.70;92.50;;;;;;6244190;23;20000;-87
2021/01/10 02:32:56;;;;;;;28.70;14.40;;;2.70;92.90;;;;;;6244620;23;20004;-87
2021/01/10 02:35:22;;;;;;;27.83;14.73;;;2.70;93.00;;;;;;6218176;23;20000;-87
2021/01/10 02:38:32;;;;;;;25.33;14.67;;;2.70;92.70;;;;;;6217802;23;20086;-87
2021/01/10 02:41:16;;;;;;;29.77;15.13;;;2.70;92.50;;;;;;6186507;23;20074;-86
2021/01/10 02:44:06;;;;;;;29.13;15.30;;;2.70;92.80;;;;;;6243388;22;20008;-87
2021/01/10 02:46:34;;;;;;;32.10;14.97;;;2.70;92.90;;;;;;6217977;23;20095;-87
2021/01/10 02:49:00;;;;;;;32.40;16.00;;;2.70;92.70;;;;;;6217271;23;20015;-87
2021/01/10 02:51:26;;;;;;;29.27;15.43;;;2.70;92.70;;;;;;6244386;23;20415;-87
2021/01/10 02:53:51;;;;;;;29.40;15.17;;;2.70;92.70;;;;;;6217988;23;20000;-88
2021/01/10 02:56:17;;;;;;;30.43;15.80;;;2.70;92.50;;;;;;6244561;23;20000;-87
2021/01/10 02:58:43;;;;;;;32.83;14.87;;;2.60;92.70;;;;;;6244596;22;19996;-87
2021/01/10 03:01:11;;;;;;;26.33;14.20;;;2.60;92.70;;;;;;6217315;23;20000;-87
2021/01/10 03:03:37;;;;;;;27.77;14.27;;;2.60;92.70;;;;;;6243029;22;20031;-87
2021/01/10 03:06:04;;;;;;;27.33;14.70;;;2.60;92.60;;;;;;6217682;23;20015;-87
2021/01/10 03:08:30;;;;;;;26.87;15.23;;;2.50;92.40;;;;;;6242773;22;20435;-88
2021/01/10 03:10:56;;;;;;;31.37;14.77;;;2.50;92.60;;;;;;6217140;23;20292;-87
2021/01/10 03:13:22;;;;;;;30.90;15.80;;;2.40;92.60;;;;;;6217632;23;20027;-87
2021/01/10 03:15:48;;;;;;;35.00;15.50;;;2.40;92.80;;;;;;6217706;23;20007;-87
2021/01/10 03:18:18;;;;;;;33.13;15.80;;;2.40;92.90;;;;;;6217984;23;20003;-87
2021/01/10 03:20:44;;;;;;;36.20;17.10;;;2.30;92.80;;;;;;6216383;23;20003;-87
2021/01/10 03:23:10;;;;;;;30.23;16.40;;;2.30;92.90;;;;;;6216958;23;20004;-87
2021/01/10 03:25:36;;;;;;;36.17;17.47;;;2.30;92.80;;;;;;6219230;23;20005;-87
2021/01/10 03:28:01;;;;;;;36.70;18.30;;;2.30;92.90;;;;;;6219446;23;20008;-88
2021/01/10 03:30:27;;;;;;;34.83;17.30;;;2.30;92.90;;;;;;6245705;23;20004;-88
2021/01/10 03:32:53;;;;;;;41.73;18.50;;;2.30;93.00;;;;;;6244932;23;20091;-88
2021/01/10 03:35:19;;;;;;;37.70;17.40;;;2.30;93.00;;;;;;6244949;23;20003;-88
2021/01/10 03:37:45;;;;;;;37.33;16.97;;;2.30;93.20;;;;;;6219431;23;20007;-88
2021/01/10 03:40:12;;;;;;;36.53;18.13;;;2.30;93.00;;;;;;6218909;23;20010;-87
2021/01/10 03:42:37;;;;;;;37.93;18.07;;;2.30;93.10;;;;;;6219517;23;20008;-87
2021/01/10 03:45:05;;;;;;;38.50;18.13;;;2.30;93.00;;;;;;6246353;23;20004;-87
2021/01/10 03:47:30;;;;;;;40.40;18.67;;;2.30;92.90;;;;;;6244580;23;20008;-87
2021/01/10 03:49:56;;;;;;;37.90;18.33;;;2.40;93.10;;;;;;6219090;23;20016;-88
2021/01/10 03:52:22;;;;;;;44.33;18.70;;;2.40;92.80;;;;;;6219117;23;20011;-87
2021/01/10 03:54:47;;;;;;;40.33;18.50;;;2.40;92.70;;;;;;6219534;23;20000;-87
2021/01/10 03:57:13;;;;;;;40.10;19.00;;;2.30;93.00;;;;;;6246107;22;19996;-87
2021/01/10 03:59:39;;;;;;;42.47;18.27;;;2.40;92.90;;;;;;6218629;23;20007;-87
2021/01/10 04:02:05;;;;;;;39.60;18.10;;;2.30;92.80;;;;;;6219287;23;20008;-87
2021/01/10 04:04:30;;;;;;;33.47;17.43;;;2.30;92.80;;;;;;6244560;23;20094;-87
2021/01/10 04:06:56;;;;;;;37.43;17.67;;;2.30;92.80;;;;;;6219216;22;20055;-87
2021/01/10 04:09:21;;;;;;;37.63;18.27;;;2.20;92.90;;;;;;6218755;23;20337;-88
2021/01/10 04:11:47;;;;;;;41.30;19.23;;;2.20;92.80;;;;;;6219194;23;20454;-87
2021/01/10 04:14:13;;;;;;;34.37;16.20;;;2.20;92.90;;;;;;6219252;23;20035;-87
2021/01/10 04:16:38;;;;;;;36.73;15.90;;;2.30;92.70;;;;;;6219103;22;20339;-87
2021/01/10 04:19:04;;;;;;;36.23;16.93;;;2.30;92.70;;;;;;6243865;23;20453;-87
2021/01/10 04:21:34;;;;;;;38.87;18.53;;;2.20;92.80;;;;;;6244551;23;20134;-86
2021/01/10 04:24:00;;;;;;;38.73;19.40;;;2.20;93.00;;;;;;6246120;23;20000;-87
2021/01/10 04:26:26;;;;;;;39.37;18.27;;;2.10;93.00;;;;;;6219399;23;20007;-88
2021/01/10 04:28:52;;;;;;;38.37;18.10;;;2.20;93.10;;;;;;6218526;23;20019;-86
2021/01/10 04:31:18;;;;;;;38.83;17.50;;;2.20;93.10;;;;;;6219023;23;20121;-87
2021/01/10 04:33:43;;;;;;;35.43;17.73;;;2.20;93.10;;;;;;6219171;23;20004;-88
2021/01/10 04:36:09;;;;;;;38.40;17.17;;;2.20;93.00;;;;;;6219049;23;20421;-87
2021/01/10 04:38:35;;;;;;;40.33;18.40;;;2.20;92.80;;;;;;6219064;23;20003;-88
2021/01/10 04:41:01;;;;;;;40.90;17.47;;;2.20;92.70;;;;;;6218369;23;20004;-87
2021/01/10 04:43:28;;;;;;;42.63;18.60;;;2.30;92.80;;;;;;6245805;23;20015;-87
2021/01/10 04:45:55;;;;;;;36.00;17.27;;;2.30;92.80;;;;;;6245797;23;20046;-87
2021/01/10 04:48:22;;;;;;;39.70;18.53;;;2.30;92.90;;;;;;6218685;23;20032;-87
2021/01/10 04:50:48;;;;;;;43.70;19.33;;;2.30;92.80;;;;;;6244758;23;20000;-87
2021/01/10 04:53:19;;;;;;;40.20;17.60;;;2.30;92.60;;;;;;6218609;23;20036;-87
2021/01/10 04:55:51;;;;;;;38.07;18.37;;;2.30;92.70;;;;;;6218802;23;20004;-87
2021/01/10 04:58:19;;;;;;;37.27;17.60;;;2.30;92.70;;;;;;6245538;22;19996;-87
2021/01/10 05:00:45;;;;;;;38.60;17.07;;;2.20;92.70;;;;;;6244774;23;20027;-87
2021/01/10 05:03:16;;;;;;;42.60;18.17;;;2.20;92.70;;;;;;6243726;22;20007;-87
2021/01/10 05:05:42;;;;;;;35.90;17.70;;;2.20;92.80;;;;;;6245719;23;20000;-88
2021/01/10 05:08:09;;;;;;;34.50;17.43;;;2.20;92.70;;;;;;6218736;23;20000;-87
2021/01/10 05:10:36;;;;;;;37.10;17.43;;;2.20;92.90;;;;;;6244768;23;20143;-87
2021/01/10 05:13:02;;;;;;;38.70;17.57;;;2.20;92.80;;;;;;6218532;23;20050;-87
2021/01/10 05:15:28;;;;;;;40.67;17.93;;;2.20;92.70;;;;;;6218815;23;20324;-88
2021/01/10 05:17:58;;;;;;;36.87;17.67;;;2.20;92.60;;;;;;6218914;23;20031;-88
2021/01/10 05:20:31;;;;;;;36.13;17.20;;;2.20;92.40;;;;;;6218542;23;20038;-87
2021/01/10 05:23:01;;;;;;;37.63;17.70;;;2.20;92.50;;;;;;6218337;23;20419;-86
2021/01/10 05:25:27;;;;;;;31.17;16.75;;;2.20;92.50;;;;;;6218315;23;20008;-88
2021/01/10 05:27:54;;;;;;;36.17;16.80;;;2.20;92.40;;;;;;6268854;22;20485;-81
2021/01/10 05:30:29;;;;;;;36.80;16.07;;;2.30;92.40;;;;;;6281758;22;20070;-81
2021/01/10 05:33:02;;;;;;;34.83;15.33;;;2.20;92.20;;;;;;6308734;22;20000;-81
2021/01/10 05:35:28;;;;;;;33.33;15.57;;;2.20;92.30;;;;;;6309185;22;20006;-81
2021/01/10 05:37:55;;;;;;;32.97;15.80;;;2.20;92.20;;;;;;6296079;22;20000;-81
2021/01/10 05:40:28;;;;;;;31.10;15.00;;;2.30;92.20;;;;;;6277832;22;20006;-81
2021/01/10 05:42:56;;;;;;;27.90;14.20;;;2.30;92.10;;;;;;6251413;22;20003;-80
2021/01/10 05:45:35;;;;;;;31.27;15.03;;;2.30;92.10;;;;;;6278359;22;20006;-81
2021/01/10 05:48:12;;;;;;;27.30;14.48;;;2.30;92.40;;;;;;6278037;22;20456;-81
2021/01/10 05:50:50;;;;;;;28.27;14.90;;;2.30;92.10;;;;;;6277643;22;20004;-81
2021/01/10 05:53:21;;;;;;;30.17;14.83;;;2.30;92.00;;;;;;6278052;22;20426;-81
2021/01/10 05:55:59;;;;;;;27.30;14.40;;;2.20;92.30;;;;;;6251621;22;20000;-80
2021/01/10 05:58:32;;;;;;;28.00;14.20;;;2.20;92.30;;;;;;6278177;22;20035;-81
2021/01/10 06:01:17;;;;;;;29.60;14.47;;;2.20;92.30;;;;;;6278352;22;20411;-81
2021/01/10 06:03:43;;;;;;;26.53;13.27;;;2.20;92.10;;;;;;6278217;22;20007;-81
2021/01/10 06:06:09;;;;;;;27.40;13.20;;;2.20;92.10;;;;;;6278780;22;20081;-81
2021/01/10 06:08:36;;;;;;;26.43;14.10;;;2.20;92.10;;;;;;6278140;22;20080;-80
2021/01/10 06:11:19;;;;;;;28.70;13.83;;;2.30;92.40;;;;;;6250646;22;20074;-81
2021/01/10 06:13:58;;;;;;;23.90;13.63;;;2.20;92.10;;;;;;6250812;22;20414;-81
2021/01/10 06:16:26;;;;;;;;;;;2.20;92.10;;;;;;6252211;22;20010;-81
2021/01/10 06:19:03;;;;;;;28.30;13.70;;;2.20;92.20;;;;;;6277592;22;19899;-80
2021/01/10 06:21:30;;;;;;;34.07;15.27;;;2.20;92.20;;;;;;6277756;22;20008;-81
2021/01/10 06:23:58;;;;;;;34.77;16.03;;;2.20;92.00;;;;;;6249878;22;20311;-80
2021/01/10 06:26:26;;;;;;;29.47;14.90;;;2.20;92.20;;;;;;6276568;22;20007;-80
2021/01/10 06:28:56;;;;;;;30.57;15.33;;;2.20;92.20;;;;;;6249963;22;20015;-81
2021/01/10 06:31:24;;;;;;;30.47;15.53;;;2.20;92.20;;;;;;6276079;22;20442;-80
2021/01/10 06:34:03;;;;;;;31.17;15.53;;;2.20;92.20;;;;;;6276088;22;20373;-80
2021/01/10 06:36:35;;;;;;;32.58;16.05;;;2.20;92.20;;;;;;6276083;22;20000;-80
2021/01/10 06:39:12;;;;;;;35.80;16.10;;;2.10;92.10;;;;;;6247537;22;20010;-80
2021/01/10 06:41:41;;;;;;;32.57;17.13;;;2.10;92.20;;;;;;6275262;22;20000;-80
2021/01/10 06:44:08;;;;;;;33.95;16.30;;;2.10;92.30;;;;;;6275411;22;20053;-80
2021/01/10 06:46:35;;;;;;;38.20;16.80;;;2.10;92.10;;;;;;6275578;22;19996;-80
2021/01/10 06:49:01;;;;;;;36.63;16.23;;;2.10;92.30;;;;;;6274531;22;19996;-80
2021/01/10 06:51:29;;;;;;;33.40;16.83;;;2.10;92.30;;;;;;6275536;22;19996;-81
2021/01/10 06:53:55;;;;;;;35.33;17.93;;;2.10;92.40;;;;;;6276077;22;20434;-81
2021/01/10 06:56:21;;;;;;;41.53;19.60;;;2.10;92.50;;;;;;6276561;22;20070;-81
2021/01/10 06:59:02;;;;;;;36.87;18.07;;;2.10;92.40;;;;;;6278893;22;20020;-81
2021/01/10 07:02:03;;;;;;;39.47;18.43;;;2.10;92.50;;;;;;6280377;22;19999;-81
2021/01/10 07:04:34;;;;;;;42.10;18.60;;;2.00;92.50;;;;;;6102731;23;20002;-81
2021/01/10 07:07:00;;;;;;;40.03;19.40;;;2.20;92.50;;;;;;6254432;22;20000;-81
2021/01/10 07:09:26;;;;;;;46.83;20.97;;;2.10;92.40;;;;;;6252293;22;20003;-81
2021/01/10 07:11:51;;;;;;;46.67;21.67;;;2.20;92.50;;;;;;6280346;22;20019;-81
2021/01/10 07:14:17;;;;;;;40.63;19.83;;;2.20;92.60;;;;;;6280819;22;20528;-81
2021/01/10 07:16:45;;;;;;;45.83;21.43;;;2.20;92.40;;;;;;6280444;22;19999;-81
2021/01/10 07:19:12;;;;;;;43.27;20.30;;;2.20;92.40;;;;;;6254309;22;20000;-80
2021/01/10 07:21:44;;;;;;;44.53;20.47;;;2.10;92.60;;;;;;6282871;22;20004;-81
2021/01/10 07:24:12;;;;;;;45.50;21.20;;;2.10;92.60;;;;;;6283453;22;20350;-80
2021/01/10 07:26:43;;;;;;;45.63;21.40;;;2.20;92.60;;;;;;6281374;22;20000;-79
2021/01/10 07:29:44;;;;;;;49.33;21.30;;;2.20;92.70;;;;;;6279295;22;20011;-79
2021/01/10 07:32:12;;;;;;;49.97;21.57;;;2.20;92.50;;;;;;6173848;22;20078;-80
2021/01/10 07:34:44;;;;;;;50.23;22.13;;;2.20;92.60;;;;;;6279871;22;20024;-80
2021/01/10 07:37:11;;;;;;;53.53;22.47;;;2.30;92.60;;;;;;6279941;22;20024;-80
2021/01/10 07:39:53;;;;;;;51.10;22.43;;;2.20;92.70;;;;;;6279320;22;20003;-80
2021/01/10 07:42:22;;;;;;;56.33;23.07;;;2.30;92.60;;;;;;6279603;22;20003;-79
2021/01/10 07:44:53;;;;;;;49.60;23.00;;;2.30;92.70;;;;;;6279799;22;20014;-79
2021/01/10 07:47:34;;;;;;;57.20;25.40;;;2.30;92.60;;;;;;6280051;22;20023;-81
2021/01/10 07:50:04;;;;;;;56.20;23.20;;;2.30;92.70;;;;;;6282073;22;20011;-79
2021/01/10 07:52:42;;;;;;;50.43;23.17;;;2.20;92.50;;;;;;6279368;22;19996;-80
2021/01/10 07:55:23;;;;;;;56.70;24.70;;;2.20;92.70;;;;;;6278185;22;20070;-79
2021/01/10 07:58:02;;;;;;;51.77;22.43;;;2.30;92.70;;;;;;6278209;22;20023;-80
2021/01/10 08:00:32;;;;;;;53.17;22.95;;;2.30;92.60;;;;;;6250462;22;20003;-79
2021/01/10 08:03:02;;;;;;;54.60;24.67;;;2.30;92.70;;;;;;6251297;22;20000;-79
2021/01/10 08:05:39;;;;;;;53.63;23.80;;;2.30;92.60;;;;;;6278876;22;20057;-79
2021/01/10 08:08:39;;;;;;;50.60;23.60;;;2.30;92.70;;;;;;6278379;22;20003;-80
2021/01/10 08:11:06;;;;;;;58.53;24.70;;;2.30;92.70;;;;;;6265806;22;20015;-79
2021/01/10 08:13:36;;;;;;;52.43;23.97;;;2.30;92.80;;;;;;6276536;22;20498;-79
2021/01/10 08:16:09;;;;;;;59.30;25.10;;;2.30;92.80;;;;;;6249493;22;20004;-79
2021/01/10 08:18:38;;;;;;;56.50;24.50;;;2.30;92.60;;;;;;6276675;22;20018;-79
2021/01/10 08:21:15;;;;;;;59.27;24.93;;;2.30;92.70;;;;;;6275939;22;19996;-78
2021/01/10 08:23:43;;;;;;;53.30;23.27;;;2.30;92.80;;;;;;6250056;22;20014;-79
2021/01/10 08:26:14;;;;;;;55.20;23.50;;;2.30;92.70;;;;;;6249606;22;20008;-80
2021/01/10 08:28:42;;;;;;;55.57;24.77;;;2.30;92.70;;;;;;6276420;22;20450;-79
2021/01/10 08:31:10;;;;;;;51.93;23.00;;;2.30;92.80;;;;;;6275943;22;20105;-79
2021/01/10 08:33:36;;;;;;;52.13;22.73;;;2.30;92.90;;;;;;6276552;22;20003;-79
2021/01/10 08:36:11;;;;;;;48.30;22.17;;;2.30;92.70;;;;;;6276965;22;20007;-79
2021/01/10 08:38:50;;;;;;;52.67;23.20;;;2.30;92.70;;;;;;6276793;22;19999;-79
2021/01/10 08:41:23;;;;;;;50.30;23.52;;;2.30;92.70;;;;;;6276954;22;20022;-79
2021/01/10 08:43:50;;;;;;;48.27;23.37;;;2.40;92.60;;;;;;6249589;22;20014;-79
2021/01/10 08:46:16;;;;;;;50.83;22.53;;;2.40;92.70;;;;;;6249660;22;20486;-79
2021/01/10 08:48:42;;;;;;;50.33;22.07;;;2.40;92.60;;;;;;6276761;22;20006;-79
2021/01/10 08:51:26;;;;;;;47.40;21.50;;;2.40;92.60;;;;;;6248768;22;20398;-79
2021/01/10 08:53:51;;;;;;;50.60;22.53;;;2.40;92.80;;;;;;6277707;22;20053;-79
2021/01/10 08:56:17;;;;;;;49.33;21.70;;;2.40;92.80;;;;;;6277912;22;20000;-79
2021/01/10 08:58:43;;;;;;;45.63;21.30;;;2.40;92.90;;;;;;6277996;22;20006;-80
2021/01/10 09:01:23;;;;;;;46.47;21.67;;;2.50;92.80;;;;;;6277252;22;20000;-80
2021/01/10 09:03:59;;;;;;;47.63;21.60;;;2.50;92.70;;;;;;6250715;22;20338;-79
2021/01/10 09:06:29;;;;;;;50.70;21.97;;;2.50;92.70;;;;;;6250815;22;20004;-80
2021/01/10 09:09:01;;;;;;;48.97;21.25;;;2.50;92.90;;;;;;6249878;22;20003;-80
2021/01/10 09:11:29;;;;;;;50.47;23.37;;;2.50;92.70;;;;;;6277751;22;20083;-80
2021/01/10 09:13:58;;;;;;;52.83;22.87;;;2.50;92.60;;;;;;6250404;22;20000;-79
2021/01/10 09:16:25;;;;;;;44.85;22.48;;;2.50;92.70;;;;;;6277975;22;20446;-79
2021/01/10 09:18:54;;;;;;;51.17;24.17;;;2.60;92.60;;;;;;6250099;22;20370;-80
2021/01/10 09:21:26;;;;;;;47.45;22.27;;;2.60;92.60;;;;;;6250656;22;20026;-80
2021/01/10 09:23:54;;;;;;;49.60;22.50;;;2.60;92.70;;;;;;6277731;22;20007;-80
2021/01/10 09:26:38;;;;;;;47.87;22.07;;;2.60;92.70;;;;;;6277875;22;20014;-79
2021/01/10 09:29:17;;;;;;;49.57;22.63;;;2.60;92.70;;;;;;6249624;22;20030;-79
2021/01/10 09:31:48;;;;;;;47.97;23.05;;;2.60;92.70;;;;;;6249908;22;20054;-80
2021/01/10 09:34:15;;;;;;;48.60;21.97;;;2.60;92.70;;;;;;6277748;22;20070;-79
2021/01/10 09:36:41;;;;;;;50.57;24.37;;;2.60;92.80;;;;;;6277462;22;20000;-80
2021/01/10 09:39:08;;;;;;;51.03;23.73;;;2.60;92.80;;;;;;6276456;22;20071;-79
2021/01/10 09:41:55;;;;;;;51.43;23.13;;;2.60;92.90;;;;;;6277483;22;20066;-80
2021/01/10 09:44:20;;;;;;;47.53;22.47;;;2.70;93.00;;;;;;6277594;22;19999;-80
2021/01/10 09:46:53;;;;;;;49.80;24.03;;;2.70;92.90;;;;;;6250424;22;20054;-79
2021/01/10 09:49:29;;;;;;;50.70;23.50;;;2.70;92.80;;;;;;6276280;22;20373;-79
2021/01/10 09:51:56;;;;;;;52.03;24.30;;;2.70;92.80;;;;;;6277811;22;20011;-80
2021/01/10 09:54:26;;;;;;;53.00;24.77;;;2.70;92.80;;;;;;6277245;22;20000;-79
2021/01/10 09:56:53;;;;;;;54.07;23.37;;;2.70;92.80;;;;;;6277007;22;20011;-80
2021/01/10 09:59:45;;;;;;;52.47;25.17;;;2.70;92.80;;;;;;6276834;22;19995;-80
2021/01/10 10:02:35;;;;;;;52.87;24.33;;;2.70;93.00;;;;;;6277714;22;20023;-80
2021/01/10 10:05:25;;;;;;;51.42;24.17;;;2.70;92.80;;;;;;6277684;22;20003;-79
2021/01/10 10:07:59;;;;;;;54.93;24.40;;;2.70;92.80;;;;;;6277373;22;20027;-79
2021/01/10 10:10:31;;;;;;;51.60;24.10;;;2.80;92.90;;;;;;6276904;22;20311;-80
2021/01/10 10:13:04;;;;;;;55.33;24.80;;;2.80;93.00;;;;;;6277327;22;20435;-80
2021/01/10 10:15:43;;;;;;;56.87;25.67;;;2.80;92.70;;;;;;6277299;22;20001;-80
2021/01/10 10:18:16;;;;;;;49.90;25.20;;;2.70;93.00;;;;;;6250390;22;20004;-80
2021/01/10 10:20:42;;;;;;;53.73;24.73;;;2.80;93.00;;;;;;6276541;22;20121;-80
2021/01/10 10:23:13;;;;;;;54.30;25.17;;;2.80;92.90;;;;;;6277435;22;19999;-79
2021/01/10 10:25:40;;;;;;;49.63;24.47;;;2.80;93.00;;;;;;6277368;22;20076;-80
2021/01/10 10:28:07;;;;;;;50.17;24.03;;;2.80;92.90;;;;;;6250119;22;20008;-80
2021/01/10 10:30:33;;;;;;;48.70;23.53;;;2.80;92.90;;;;;;6276706;22;20011;-80
2021/01/10 10:33:00;;;;;;;48.57;22.97;;;2.80;93.00;;;;;;6276805;22;20035;-80
2021/01/10 10:35:25;;;;;;;47.57;22.67;;;2.80;92.80;;;;;;6277519;22;20003;-80
2021/01/10 10:37:51;;;;;;;43.70;22.57;;;2.80;92.90;;;;;;6277234;22;20000;-80
2021/01/10 10:40:18;;;;;;;50.77;23.33;;;2.90;92.90;;;;;;6277198;22;20026;-80
2021/01/10 10:42:44;;;;;;;48.20;23.50;;;2.90;92.80;;;;;;6276864;22;20482;-80
2021/01/10 10:45:10;;;;;;;50.50;23.40;;;2.90;92.80;;;;;;6277202;22;20008;-80
2021/01/10 10:47:36;;;;;;;49.27;23.17;;;3.00;92.80;;;;;;6277139;22;20027;-80
2021/01/10 10:50:03;;;;;;;49.80;22.67;;;3.00;92.80;;;;;;6276553;22;20312;-80
2021/01/10 10:52:29;;;;;;;53.33;24.23;;;3.00;92.70;;;;;;6276229;22;20007;-79
2021/01/10 10:54:54;;;;;;;50.63;23.87;;;2.90;92.80;;;;;;6276365;22;20000;-80
2021/01/10 10:57:20;;;;;;;52.17;25.90;;;2.90;92.70;;;;;;6276366;22;20354;-80
2021/01/10 10:59:45;;;;;;;47.80;24.07;;;2.90;92.80;;;;;;6275481;22;20050;-79
2021/01/10 11:02:11;;;;;;;50.80;23.90;;;2.90;92.90;;;;;;6276056;22;20011;-79
2021/01/10 11:04:42;;;;;;;48.10;22.87;;;3.00;92.70;;;;;;6249005;22;20338;-79
2021/01/10 11:07:08;;;;;;;48.60;23.87;;;3.00;92.60;;;;;;6276175;22;20000;-79
2021/01/10 11:09:34;;;;;;;42.93;23.00;;;3.00;92.80;;;;;;6274977;22;20010;-80
2021/01/10 11:12:01;;;;;;;47.07;23.30;;;3.00;92.90;;;;;;6276033;22;20031;-79
2021/01/10 11:14:26;;;;;;;43.00;22.60;;;3.00;93.10;;;;;;6275949;22;19999;-79
2021/01/10 11:16:53;;;;;;;45.33;22.20;;;3.00;92.50;;;;;;6276075;22;20039;-79
2021/01/10 11:19:20;;;;;;;44.40;22.93;;;3.00;92.60;;;;;;6275218;22;20433;-80
2021/01/10 11:21:48;;;;;;;38.73;20.67;;;3.00;92.60;;;;;;6275703;22;20027;-79
2021/01/10 11:24:15;;;;;;;47.23;21.97;;;3.00;92.70;;;;;;6275802;22;20006;-79
2021/01/10 11:26:42;;;;;;;43.33;20.93;;;3.00;92.70;;;;;;6275952;22;20434;-79
2021/01/10 11:29:09;;;;;;;41.33;20.03;;;3.00;92.80;;;;;;6281630;22;20016;-86
2021/01/10 11:31:35;;;;;;;38.87;18.07;;;3.00;92.80;;;;;;6259178;22;20000;-87
2021/01/10 11:34:06;;;;;;;34.47;18.50;;;3.00;92.40;;;;;;6285511;22;20011;-87
2021/01/10 11:36:32;;;;;;;36.80;18.03;;;3.00;92.40;;;;;;6259155;22;20019;-87
2021/01/10 11:39:01;;;;;;;35.43;17.57;;;3.00;92.40;;;;;;6263489;22;20004;-87
2021/01/10 11:41:27;;;;;;;30.27;16.02;;;3.10;92.00;;;;;;6223976;23;20004;-87
2021/01/10 11:43:53;;;;;;;32.63;16.33;;;3.10;91.90;;;;;;6258520;23;20039;-87
2021/01/10 11:46:22;;;;;;;34.57;15.67;;;3.20;91.80;;;;;;6231009;23;20330;-86
2021/01/10 11:48:49;;;;;;;30.42;16.42;;;3.20;92.00;;;;;;6230847;23;20070;-88
2021/01/10 11:51:16;;;;;;;29.40;14.80;;;3.20;92.00;;;;;;6257306;23;20000;-87
2021/01/10 11:53:42;;;;;;;27.37;14.97;;;3.20;91.70;;;;;;6255877;22;20026;-87
2021/01/10 11:56:08;;;;;;;31.90;16.80;;;3.20;91.90;;;;;;6256741;22;20006;-88
2021/01/10 11:58:37;;;;;;;28.13;15.73;;;3.30;91.90;;;;;;6258457;22;20004;-89
2021/01/10 12:01:02;;;;;;;29.43;15.63;;;3.30;91.90;;;;;;6231326;23;20423;-88
2021/01/10 12:03:28;;;;;;;29.80;15.37;;;3.30;91.60;;;;;;6258446;23;20034;-88
2021/01/10 12:05:54;;;;;;;33.13;15.73;;;3.30;91.60;;;;;;6257735;22;20042;-88
2021/01/10 12:08:22;;;;;;;30.53;15.10;;;3.40;91.60;;;;;;6231298;23;20034;-88
2021/01/10 12:10:48;;;;;;;29.80;15.70;;;3.40;91.50;;;;;;6222797;23;20426;-88
2021/01/10 12:13:14;;;;;;;28.30;15.43;;;3.40;91.50;;;;;;6246313;23;20049;-88
2021/01/10 12:15:41;;;;;;;34.40;16.77;;;3.40;91.70;;;;;;6246836;23;20419;-88
2021/01/10 12:18:07;;;;;;;30.87;16.37;;;3.40;91.50;;;;;;6246378;22;19992;-89
2021/01/10 12:20:34;;;;;;;33.10;16.90;;;3.50;91.60;;;;;;6245603;23;20067;-88
2021/01/10 12:23:02;;;;;;;30.63;16.40;;;3.50;91.10;;;;;;6219593;23;20008;-87
2021/01/10 12:25:28;;;;;;;37.47;19.10;;;3.50;91.20;;;;;;6197502;23;20343;-88
2021/01/10 12:27:54;;;;;;;31.23;17.63;;;3.50;91.30;;;;;;6249497;22;20015;-88
2021/01/10 12:30:20;;;;;;;33.23;17.37;;;3.50;91.20;;;;;;6248514;23;20000;-87
2021/01/10 12:32:46;;;;;;;33.83;17.63;;;3.50;91.40;;;;;;6247627;22;20013;-88
2021/01/10 12:35:15;;;;;;;32.37;17.43;;;3.50;91.00;;;;;;6223439;23;20000;-87
2021/01/10 12:37:42;;;;;;;36.65;17.38;;;3.50;91.00;;;;;;6222568;23;20011;-87
2021/01/10 12:40:09;;;;;;;37.17;17.67;;;3.50;90.90;;;;;;6249967;23;20377;-87
2021/01/10 12:42:35;;;;;;;35.63;18.20;;;3.50;91.00;;;;;;6223406;23;20031;-87
2021/01/10 12:45:13;;;;;;;39.53;19.23;;;3.50;91.30;;;;;;6250899;23;20439;-87
2021/01/10 12:47:52;;;;;;;34.20;18.27;;;3.50;91.10;;;;;;6208857;22;20004;-87
2021/01/10 12:50:19;;;;;;;35.40;18.57;;;3.60;91.20;;;;;;6255130;23;20004;-85